Time;durP1;ratioP1;P1;durP2;ratioP2;P2;SDS_P1;SDS_P2;PMS_P1;PMS_P2;Temp;Humidity;BMP_temperature;BMP_pressure;BME280_temperature;BME280_humidity;BME280_pressure;Samples;Min_cycle;Max_cycle;Signal;HPM_P1;HPM_P2
2022/04/23 00:00:14;;;;;;;12.02;7.10;;;11.00;99.90;;;;;;5057385;28;20465;-48
2022/04/23 00:02:42;;;;;;;13.75;7.85;;;11.10;99.90;;;;;;5074983;28;20036;-48
2022/04/23 00:05:10;;;;;;;14.38;7.47;;;11.10;99.90;;;;;;5075392;28;20117;-47
2022/04/23 00:07:35;;;;;;;15.05;8.70;;;11.10;99.90;;;;;;5075234;28;20029;-49
2022/04/23 00:10:01;;;;;;;14.85;8.20;;;11.10;99.90;;;;;;5075054;28;20496;-48
2022/04/23 00:12:27;;;;;;;12.57;7.55;;;11.00;99.90;;;;;;5075087;28;20063;-49
2022/04/23 00:14:53;;;;;;;13.07;7.25;;;11.00;99.90;;;;;;5074996;28;20045;-49
2022/04/23 00:17:19;;;;;;;13.57;7.63;;;11.00;99.90;;;;;;5074745;28;20052;-50
2022/04/23 00:19:46;;;;;;;16.83;8.50;;;11.00;99.90;;;;;;5073830;28;20040;-48
2022/04/23 00:22:15;;;;;;;12.25;8.07;;;10.90;99.90;;;;;;5072929;28;20044;-51
2022/04/23 00:24:42;;;;;;;14.90;7.72;;;10.90;99.90;;;;;;5054903;28;20071;-49
2022/04/23 00:27:07;;;;;;;14.63;8.05;;;10.80;99.90;;;;;;5054800;28;20041;-49
2022/04/23 00:29:35;;;;;;;12.30;7.30;;;10.80;99.90;;;;;;5054755;28;20041;-52
2022/04/23 00:32:02;;;;;;;15.23;8.07;;;10.80;99.90;;;;;;5069957;28;20493;-48
2022/04/23 00:34:28;;;;;;;15.18;8.02;;;10.80;99.90;;;;;;5054735;28;20421;-54
2022/04/23 00:36:54;;;;;;;11.80;8.02;;;10.70;99.90;;;;;;5054646;28;20116;-47
2022/04/23 00:39:20;;;;;;;15.68;8.93;;;10.70;99.90;;;;;;5054679;28;20455;-51
2022/04/23 00:41:51;;;;;;;15.13;9.00;;;10.50;99.90;;;;;;5054481;28;20104;-52
2022/04/23 00:44:18;;;;;;;15.90;8.07;;;10.60;99.90;;;;;;5053338;28;20040;-50
2022/04/23 00:46:45;;;;;;;12.88;7.68;;;10.50;99.90;;;;;;5054323;28;20045;-52
2022/04/23 00:49:11;;;;;;;12.95;8.85;;;10.50;99.90;;;;;;5054547;28;20124;-51
2022/04/23 00:51:39;;;;;;;15.63;8.02;;;10.50;99.90;;;;;;5054355;28;20052;-50
2022/04/23 00:54:07;;;;;;;16.58;8.88;;;10.40;99.90;;;;;;5054304;28;20099;-48
2022/04/23 00:56:35;;;;;;;16.70;9.10;;;10.40;99.90;;;;;;5053056;28;20052;-51
2022/04/23 00:59:04;;;;;;;15.48;9.43;;;10.50;99.90;;;;;;5053038;28;20055;-51
2022/04/23 01:01:30;;;;;;;17.17;9.25;;;10.40;99.90;;;;;;5054326;28;20088;-50
2022/04/23 01:03:57;;;;;;;11.82;8.23;;;10.40;99.90;;;;;;5054150;28;20040;-51
2022/04/23 01:06:24;;;;;;;14.50;8.88;;;10.30;99.90;;;;;;5054248;28;20044;-51
2022/04/23 01:08:50;;;;;;;15.05;9.20;;;10.40;99.90;;;;;;5069576;28;20033;-52
2022/04/23 01:11:17;;;;;;;14.30;8.93;;;10.30;99.90;;;;;;5052943;28;20073;-47
2022/04/23 01:13:44;;;;;;;14.43;9.60;;;10.30;99.90;;;;;;5069460;28;20043;-51
2022/04/23 01:16:11;;;;;;;15.00;9.30;;;10.20;99.90;;;;;;5052422;28;20496;-48
2022/04/23 01:18:42;;;;;;;15.63;9.60;;;10.30;99.90;;;;;;5054201;28;20391;-49
2022/04/23 01:21:13;;;;;;;14.77;9.20;;;10.30;99.90;;;;;;5053788;28;20051;-47
2022/04/23 01:23:41;;;;;;;14.33;9.70;;;10.20;99.90;;;;;;5053484;28;20497;-51
2022/04/23 01:26:08;;;;;;;16.63;10.98;;;10.30;99.90;;;;;;5035944;28;20048;-47
2022/04/23 01:28:35;;;;;;;16.77;10.43;;;10.20;99.90;;;;;;5053404;28;20053;-47
2022/04/23 01:31:01;;;;;;;17.52;9.68;;;10.20;99.90;;;;;;5053718;28;20102;-46
2022/04/23 01:33:27;;;;;;;18.00;11.27;;;10.20;99.90;;;;;;5053644;28;20370;-46
2022/04/23 01:35:56;;;;;;;15.20;10.20;;;10.20;99.90;;;;;;5053518;28;20496;-52
2022/04/23 01:38:21;;;;;;;17.55;10.25;;;10.10;99.90;;;;;;5053397;28;20123;-47
2022/04/23 01:40:47;;;;;;;15.52;10.65;;;10.20;99.90;;;;;;5052066;28;20123;-51
2022/04/23 01:43:13;;;;;;;16.38;10.77;;;10.20;99.90;;;;;;5054185;28;20076;-47
2022/04/23 01:45:39;;;;;;;15.30;9.90;;;10.10;99.90;;;;;;5073273;28;20524;-47
2022/04/23 01:48:05;;;;;;;18.50;11.02;;;10.10;99.90;;;;;;5073364;28;20503;-48
2022/04/23 01:50:32;;;;;;;17.25;10.98;;;10.10;99.90;;;;;;5071930;28;20495;-47
2022/04/23 01:52:58;;;;;;;18.45;11.57;;;10.00;99.90;;;;;;5072963;28;20036;-48
2022/04/23 01:55:23;;;;;;;17.50;10.82;;;10.00;99.90;;;;;;5072898;28;20090;-47
2022/04/23 01:57:49;;;;;;;16.52;10.63;;;9.90;99.90;;;;;;5072772;28;20562;-52
2022/04/23 02:00:15;;;;;;;15.50;10.27;;;9.80;99.90;;;;;;5073170;28;20048;-49
2022/04/23 02:02:42;;;;;;;16.88;10.00;;;9.80;99.90;;;;;;5054942;28;20484;-47
2022/04/23 02:05:09;;;;;;;15.65;10.05;;;9.80;99.90;;;;;;5072847;28;20047;-52
2022/04/23 02:07:44;;;;;;;16.27;10.60;;;9.80;99.90;;;;;;5072234;28;20527;-48
2022/04/23 02:10:12;;;;;;;18.55;10.75;;;9.70;99.90;;;;;;5072906;28;20040;-47
2022/04/23 02:12:39;;;;;;;16.88;10.77;;;9.60;99.90;;;;;;5072890;28;20044;-48
2022/04/23 02:15:12;;;;;;;15.10;10.68;;;9.60;99.90;;;;;;5072749;28;20078;-50
2022/04/23 02:17:41;;;;;;;17.73;12.00;;;9.60;99.90;;;;;;5072524;28;20048;-52
2022/04/23 02:20:09;;;;;;;16.33;10.80;;;9.60;99.90;;;;;;5072771;28;20102;-47
2022/04/23 02:22:35;;;;;;;19.92;11.52;;;9.50;99.90;;;;;;5067773;28;20044;-48
2022/04/23 02:25:02;;;;;;;19.20;12.30;;;9.50;99.90;;;;;;5051499;28;20037;-49
2022/04/23 02:27:30;;;;;;;16.90;11.48;;;9.60;99.90;;;;;;5052402;28;20539;-49
2022/04/23 02:29:56;;;;;;;18.52;11.27;;;9.50;99.90;;;;;;5052447;28;20090;-48
2022/04/23 02:32:22;;;;;;;18.55;11.27;;;9.60;99.90;;;;;;5052507;28;20036;-47
2022/04/23 02:34:47;;;;;;;18.13;11.95;;;9.60;99.90;;;;;;5050978;28;20060;-48
2022/04/23 02:37:13;;;;;;;21.33;11.98;;;9.60;99.90;;;;;;5052299;28;20076;-49
2022/04/23 02:39:39;;;;;;;18.80;11.88;;;9.70;99.90;;;;;;5052637;28;20405;-48
2022/04/23 02:42:05;;;;;;;16.77;10.98;;;9.60;99.90;;;;;;5034812;28;20045;-47
2022/04/23 02:44:31;;;;;;;18.25;11.00;;;9.60;99.90;;;;;;5064960;28;20125;-48
2022/04/23 02:46:57;;;;;;;18.85;11.50;;;9.60;99.90;;;;;;5072269;28;20041;-48
2022/04/23 02:49:23;;;;;;;18.60;11.77;;;9.60;99.90;;;;;;5072125;28;20105;-47
2022/04/23 02:51:50;;;;;;;17.23;11.65;;;9.50;99.90;;;;;;5072365;28;20048;-52
2022/04/23 02:54:17;;;;;;;22.17;12.77;;;9.60;99.90;;;;;;5072107;28;20579;-52
2022/04/23 02:56:43;;;;;;;18.98;10.95;;;9.50;99.90;;;;;;5054005;28;20127;-49
2022/04/23 02:59:09;;;;;;;18.58;11.25;;;9.50;99.90;;;;;;5071973;28;20183;-51
2022/04/23 03:01:39;;;;;;;18.48;12.02;;;9.50;99.90;;;;;;5054136;28;20492;-52
2022/04/23 03:04:05;;;;;;;15.75;11.23;;;9.50;99.90;;;;;;5071966;28;20036;-51
2022/04/23 03:06:33;;;;;;;18.08;11.20;;;9.50;99.90;;;;;;5072205;28;20131;-50
2022/04/23 03:09:03;;;;;;;17.08;11.27;;;9.40;99.90;;;;;;5072098;28;20028;-50
2022/04/23 03:11:31;;;;;;;16.70;11.73;;;9.40;99.90;;;;;;5072029;28;20048;-52
2022/04/23 03:14:03;;;;;;;18.15;12.10;;;9.50;99.90;;;;;;5072412;28;20166;-52
2022/04/23 03:16:29;;;;;;;15.55;11.93;;;9.40;99.90;;;;;;5071642;28;20036;-51
2022/04/23 03:18:59;;;;;;;16.85;11.52;;;9.40;99.90;;;;;;5072101;28;20063;-50
2022/04/23 03:21:24;;;;;;;18.98;11.95;;;9.30;99.90;;;;;;5075403;28;20119;-52
2022/04/23 03:23:50;;;;;;;16.15;10.38;;;9.40;99.90;;;;;;5060594;28;20114;-52
2022/04/23 03:26:16;;;;;;;17.58;11.00;;;9.30;99.90;;;;;;5055988;28;20059;-51
2022/04/23 03:28:42;;;;;;;18.80;11.52;;;9.30;99.90;;;;;;5055838;28;20405;-49
2022/04/23 03:31:11;;;;;;;16.10;11.07;;;9.30;99.90;;;;;;5054503;28;20040;-49
2022/04/23 03:33:36;;;;;;;15.85;10.77;;;9.30;99.90;;;;;;5055982;28;20088;-48
2022/04/23 03:36:03;;;;;;;15.85;11.43;;;9.30;99.90;;;;;;5054587;28;20095;-49
2022/04/23 03:38:29;;;;;;;17.13;11.15;;;9.20;99.90;;;;;;5054596;28;20033;-49
2022/04/23 03:40:55;;;;;;;16.95;11.35;;;9.20;99.90;;;;;;5055674;28;20044;-48
2022/04/23 03:43:24;;;;;;;16.23;10.25;;;9.20;99.90;;;;;;5058862;28;20052;-50
2022/04/23 03:45:50;;;;;;;15.38;10.73;;;9.20;99.90;;;;;;5075354;28;20041;-49
2022/04/23 03:48:16;;;;;;;16.92;11.27;;;9.20;99.90;;;;;;5075654;28;20107;-49
2022/04/23 03:50:41;;;;;;;16.88;10.57;;;9.20;99.90;;;;;;5073999;28;20683;-48
2022/04/23 03:53:08;;;;;;;15.07;11.05;;;9.10;99.90;;;;;;5057460;28;20113;-49
2022/04/23 03:55:34;;;;;;;16.45;11.27;;;9.10;99.90;;;;;;5074202;28;20523;-48
2022/04/23 03:58:01;;;;;;;16.73;10.55;;;9.20;99.90;;;;;;5075103;28;20037;-48
2022/04/23 04:00:28;;;;;;;14.90;10.73;;;9.10;99.90;;;;;;5075442;28;20062;-49
2022/04/23 04:02:55;;;;;;;16.90;11.85;;;9.10;99.90;;;;;;5075490;28;20036;-49
2022/04/23 04:05:22;;;;;;;17.40;11.40;;;9.10;99.90;;;;;;5075284;28;20041;-48
2022/04/23 04:07:48;;;;;;;17.52;11.40;;;9.10;99.90;;;;;;5075245;28;20048;-50
2022/04/23 04:10:17;;;;;;;15.23;10.55;;;9.00;99.90;;;;;;5075116;28;20401;-49
2022/04/23 04:12:43;;;;;;;15.20;10.85;;;9.10;99.90;;;;;;5075016;28;20185;-49
2022/04/23 04:15:11;;;;;;;16.55;10.77;;;9.00;99.90;;;;;;5075179;28;20082;-48
2022/04/23 04:17:38;;;;;;;17.33;11.93;;;9.00;99.90;;;;;;5073490;28;20058;-47
2022/04/23 04:20:08;;;;;;;15.80;11.30;;;9.00;99.90;;;;;;5075041;28;20051;-48
2022/04/23 04:22:34;;;;;;;17.23;11.88;;;9.00;99.90;;;;;;5070032;28;20041;-48
2022/04/23 04:25:02;;;;;;;16.77;11.95;;;9.00;99.90;;;;;;5054917;28;20069;-49
2022/04/23 04:27:27;;;;;;;18.75;11.45;;;9.00;99.90;;;;;;5054764;28;20049;-49
2022/04/23 04:29:53;;;;;;;15.77;11.38;;;9.00;99.90;;;;;;5054890;28;20091;-50
2022/04/23 04:32:20;;;;;;;15.43;11.57;;;9.00;99.90;;;;;;5054451;28;20452;-49
2022/04/23 04:34:46;;;;;;;16.67;12.18;;;9.00;99.90;;;;;;5054778;28;20049;-48
2022/04/23 04:37:12;;;;;;;17.25;11.95;;;9.00;99.90;;;;;;5054698;28;20463;-50
2022/04/23 04:39:41;;;;;;;17.30;10.80;;;9.00;99.90;;;;;;5054422;28;20036;-48
2022/04/23 04:42:07;;;;;;;16.75;11.13;;;9.10;99.90;;;;;;5054504;28;20370;-49
2022/04/23 04:44:35;;;;;;;18.75;11.73;;;8.90;99.90;;;;;;5067972;28;20036;-50
2022/04/23 04:47:00;;;;;;;16.52;11.15;;;9.00;99.90;;;;;;5074618;28;20454;-48
2022/04/23 04:49:26;;;;;;;16.23;11.00;;;9.00;99.90;;;;;;5074422;28;20044;-47
2022/04/23 04:51:53;;;;;;;17.05;12.40;;;9.00;99.90;;;;;;5074142;28;20110;-49
2022/04/23 04:54:21;;;;;;;17.50;11.40;;;8.90;99.90;;;;;;5074155;28;20072;-51
2022/04/23 04:56:50;;;;;;;16.60;11.38;;;9.00;99.90;;;;;;5074327;28;20094;-50
2022/04/23 04:59:16;;;;;;;15.40;11.73;;;9.00;99.90;;;;;;5074397;28;20431;-49
2022/04/23 05:01:42;;;;;;;16.85;11.27;;;8.90;99.90;;;;;;5074215;28;20036;-50
2022/04/23 05:04:07;;;;;;;13.68;10.50;;;9.00;99.90;;;;;;5072793;28;20139;-49
2022/04/23 05:06:33;;;;;;;18.02;11.40;;;9.00;99.90;;;;;;5074034;28;20048;-49
2022/04/23 05:08:59;;;;;;;16.80;11.80;;;9.00;99.90;;;;;;5074028;28;20189;-50
2022/04/23 05:11:25;;;;;;;15.95;11.73;;;9.00;99.90;;;;;;5074116;28;20045;-48
2022/04/23 05:13:51;;;;;;;17.00;11.63;;;9.10;99.90;;;;;;5074007;28;20044;-49
2022/04/23 05:16:17;;;;;;;15.45;10.95;;;9.10;99.90;;;;;;5072424;28;20052;-48
2022/04/23 05:18:43;;;;;;;15.32;11.55;;;9.10;99.90;;;;;;5073743;28;20052;-49
2022/04/23 05:21:09;;;;;;;16.42;11.50;;;9.10;99.90;;;;;;5073659;28;20404;-49
2022/04/23 05:23:34;;;;;;;16.83;11.68;;;9.10;99.90;;;;;;5060459;28;20429;-51
2022/04/23 05:26:01;;;;;;;15.23;11.02;;;9.20;99.90;;;;;;5053865;28;20128;-50
2022/04/23 05:28:27;;;;;;;16.23;10.45;;;9.20;99.90;;;;;;5053623;28;20481;-52
2022/04/23 05:30:53;;;;;;;17.63;11.65;;;9.30;99.90;;;;;;5053660;28;20040;-51
2022/04/23 05:33:19;;;;;;;18.35;11.38;;;9.20;99.90;;;;;;5053639;28;20045;-50
2022/04/23 05:35:44;;;;;;;16.65;11.02;;;9.30;99.90;;;;;;5053495;28;20043;-52
2022/04/23 05:38:10;;;;;;;15.85;10.73;;;9.30;99.90;;;;;;5053402;28;20077;-50
2022/04/23 05:40:36;;;;;;;15.88;10.82;;;9.40;99.90;;;;;;5053311;28;20069;-51
2022/04/23 05:43:01;;;;;;;15.43;11.00;;;9.40;99.90;;;;;;5053071;28;20048;-53
2022/04/23 05:45:29;;;;;;;14.32;10.80;;;9.50;99.90;;;;;;5073314;28;20048;-48
2022/04/23 05:47:55;;;;;;;14.85;10.68;;;9.50;99.90;;;;;;5072833;28;20503;-49
2022/04/23 05:50:22;;;;;;;14.77;11.57;;;9.60;99.90;;;;;;5071518;28;20128;-49
2022/04/23 05:52:48;;;;;;;15.60;10.88;;;9.60;99.90;;;;;;5071547;28;20072;-49
2022/04/23 05:55:14;;;;;;;15.73;11.95;;;9.70;99.90;;;;;;5071752;28;20041;-48
2022/04/23 05:57:40;;;;;;;15.93;10.55;;;9.70;99.90;;;;;;5070240;28;20044;-49
2022/04/23 06:00:08;;;;;;;17.88;11.48;;;9.80;99.90;;;;;;5071413;28;20121;-48
2022/04/23 06:02:34;;;;;;;16.60;10.93;;;9.90;99.90;;;;;;5071419;28;20048;-51
2022/04/23 06:05:00;;;;;;;14.73;10.27;;;10.00;99.90;;;;;;5071331;28;20040;-49
2022/04/23 06:07:26;;;;;;;15.80;10.73;;;10.00;99.90;;;;;;5071361;28;20051;-52
2022/04/23 06:09:52;;;;;;;15.40;11.10;;;10.10;99.90;;;;;;5071329;28;20484;-50
2022/04/23 06:12:18;;;;;;;14.80;9.88;;;10.20;99.90;;;;;;5071168;28;20048;-50
2022/04/23 06:14:46;;;;;;;15.52;10.77;;;10.30;99.90;;;;;;5071248;28;20450;-48
2022/04/23 06:17:13;;;;;;;13.95;10.18;;;10.30;99.90;;;;;;5070957;28;20165;-49
2022/04/23 06:19:39;;;;;;;15.32;10.90;;;10.30;99.90;;;;;;5070994;28;20051;-50
2022/04/23 06:22:06;;;;;;;16.45;10.10;;;10.30;99.90;;;;;;5069943;28;20047;-49
2022/04/23 06:24:32;;;;;;;15.20;10.32;;;10.40;99.90;;;;;;5066081;28;20045;-47
2022/04/23 06:26:58;;;;;;;13.77;9.88;;;10.50;99.90;;;;;;5049790;28;20055;-51
2022/04/23 06:29:24;;;;;;;16.05;10.80;;;10.60;99.90;;;;;;5049295;28;20045;-48
2022/04/23 06:31:50;;;;;;;16.05;11.02;;;10.70;99.90;;;;;;5050564;28;20496;-48
2022/04/23 06:34:15;;;;;;;14.80;12.00;;;10.70;99.90;;;;;;5050568;28;20043;-52
2022/04/23 06:36:41;;;;;;;16.30;11.40;;;10.70;99.90;;;;;;5050389;28;20036;-49
2022/04/23 06:39:07;;;;;;;14.50;10.38;;;10.80;99.90;;;;;;5050765;28;20032;-50
2022/04/23 06:41:33;;;;;;;14.35;9.57;;;10.90;99.90;;;;;;5050511;28;20499;-49
2022/04/23 06:43:59;;;;;;;13.65;10.55;;;11.00;99.90;;;;;;5058793;28;20136;-51
2022/04/23 06:46:26;;;;;;;16.15;11.65;;;10.90;99.90;;;;;;5070275;28;20132;-49
2022/04/23 06:48:51;;;;;;;14.05;10.63;;;10.90;99.90;;;;;;5070236;28;20072;-49
2022/04/23 06:51:17;;;;;;;14.90;11.07;;;11.00;99.90;;;;;;5070118;28;20472;-48
2022/04/23 06:53:43;;;;;;;17.17;11.65;;;11.00;99.90;;;;;;5068643;28;20044;-51
2022/04/23 06:56:09;;;;;;;15.40;11.70;;;11.00;99.90;;;;;;5070265;28;20299;-49
2022/04/23 06:58:35;;;;;;;15.77;10.90;;;11.10;99.90;;;;;;5070117;28;20045;-49
2022/04/23 07:01:01;;;;;;;16.73;10.73;;;11.20;99.90;;;;;;5069040;28;20093;-50
2022/04/23 07:03:27;;;;;;;15.05;11.18;;;11.20;99.90;;;;;;5070168;28;20158;-49
2022/04/23 07:05:53;;;;;;;15.48;10.57;;;11.30;99.90;;;;;;5070098;28;20123;-53
2022/04/23 07:08:19;;;;;;;17.23;11.40;;;11.30;99.90;;;;;;5070489;28;20048;-52
2022/04/23 07:10:44;;;;;;;14.48;11.82;;;11.40;99.90;;;;;;5068747;28;20041;-52
2022/04/23 07:13:11;;;;;;;16.42;11.68;;;11.60;99.90;;;;;;5070300;28;20055;-48
2022/04/23 07:15:38;;;;;;;16.08;11.70;;;11.60;99.90;;;;;;5070026;28;20044;-49
2022/04/23 07:18:06;;;;;;;14.00;11.48;;;11.70;99.90;;;;;;5070444;28;20056;-49
2022/04/23 07:20:32;;;;;;;17.08;11.00;;;11.80;99.90;;;;;;5070276;28;20044;-49
2022/04/23 07:25:42;;;;;;;13.73;10.38;;;11.90;99.90;;;;;;5049765;28;20524;-52
2022/04/23 07:28:08;;;;;;;14.00;11.02;;;11.80;99.90;;;;;;5049277;28;20045;-50
2022/04/23 07:30:35;;;;;;;14.82;10.68;;;12.00;99.90;;;;;;5049437;28;20068;-50
2022/04/23 07:33:02;;;;;;;13.57;10.38;;;12.00;99.90;;;;;;5049184;28;20044;-50
2022/04/23 07:38:14;;;;;;;14.50;10.80;;;12.20;99.90;;;;;;5049723;28;20146;-49
2022/04/23 07:40:43;;;;;;;13.63;10.45;;;12.30;99.90;;;;;;5049541;28;20098;-49
2022/04/23 07:43:14;;;;;;;13.30;10.77;;;12.30;99.90;;;;;;5051448;28;20436;-49
2022/04/23 07:45:45;;;;;;;13.65;10.40;;;12.40;99.90;;;;;;5070304;28;20114;-51
2022/04/23 07:48:12;;;;;;;13.82;10.38;;;12.50;99.90;;;;;;5070095;28;20570;-51
2022/04/23 07:50:40;;;;;;;13.70;10.00;;;12.60;99.90;;;;;;5068593;28;20101;-48
2022/04/23 07:53:07;;;;;;;14.32;10.45;;;12.70;99.90;;;;;;5069926;28;20040;-50
2022/04/23 07:55:36;;;;;;;13.18;10.20;;;12.70;99.90;;;;;;5069751;28;20553;-50
2022/04/23 07:58:04;;;;;;;14.38;10.48;;;12.80;99.90;;;;;;5069924;28;20036;-52
2022/04/23 08:00:31;;;;;;;16.08;10.55;;;12.90;99.90;;;;;;5070113;28;20499;-52
2022/04/23 08:02:57;;;;;;;14.07;10.43;;;12.80;99.90;;;;;;5070114;28;20036;-50
2022/04/23 08:05:23;;;;;;;13.35;9.88;;;12.90;99.90;;;;;;5070075;28;20040;-50
2022/04/23 08:07:49;;;;;;;16.75;11.65;;;12.90;99.90;;;;;;5073675;28;20190;-48
2022/04/23 08:10:15;;;;;;;12.73;10.10;;;12.90;99.90;;;;;;5073624;28;20042;-53
2022/04/23 08:12:41;;;;;;;13.80;10.00;;;13.10;99.90;;;;;;5073556;28;20041;-50
2022/04/23 08:15:07;;;;;;;14.82;10.63;;;13.00;99.90;;;;;;5073585;28;20090;-48
2022/04/23 08:17:33;;;;;;;14.18;10.93;;;13.10;99.90;;;;;;5073684;28;20044;-52
2022/04/23 08:19:59;;;;;;;16.83;11.00;;;13.20;99.90;;;;;;5073471;28;20127;-52
2022/04/23 08:22:25;;;;;;;14.73;10.75;;;13.20;99.90;;;;;;5069558;28;20041;-48
2022/04/23 08:24:51;;;;;;;14.15;10.43;;;13.20;99.90;;;;;;5053155;28;20037;-51
2022/04/23 08:27:17;;;;;;;15.88;11.18;;;13.30;99.90;;;;;;5053291;28;20374;-49
2022/04/23 08:32:27;;;;;;;14.00;10.70;;;13.60;99.90;;;;;;5053646;28;20036;-50
2022/04/23 08:34:53;;;;;;;13.10;10.43;;;13.60;99.90;;;;;;5053190;28;20276;-49
2022/04/23 08:37:19;;;;;;;13.57;10.48;;;13.60;99.90;;;;;;5051785;28;20077;-52
2022/04/23 08:39:47;;;;;;;14.55;10.18;;;13.70;99.90;;;;;;5053212;28;20068;-50
2022/04/23 08:42:16;;;;;;;15.73;10.45;;;13.60;99.90;;;;;;5053257;28;20409;-50
2022/04/23 08:44:42;;;;;;;13.55;10.80;;;13.70;99.90;;;;;;5088214;28;20155;-49
2022/04/23 08:47:11;;;;;;;14.25;10.82;;;13.70;99.90;;;;;;5072944;28;20090;-47
2022/04/23 08:49:41;;;;;;;16.15;11.32;;;13.80;99.90;;;;;;5072785;28;20055;-48
2022/04/23 08:52:15;;;;;;;14.32;10.10;;;13.70;99.90;;;;;;5054651;28;20049;-49
2022/04/23 08:54:41;;;;;;;12.60;9.90;;;13.80;99.90;;;;;;5072796;28;20111;-48
2022/04/23 08:57:07;;;;;;;13.90;10.43;;;13.90;99.90;;;;;;5072650;28;20080;-49
2022/04/23 08:59:33;;;;;;;14.23;10.45;;;14.00;99.90;;;;;;5072671;28;20041;-48
2022/04/23 09:01:59;;;;;;;18.42;10.73;;;13.90;99.90;;;;;;5071176;28;20041;-49
2022/04/23 09:04:25;;;;;;;14.75;10.13;;;14.00;99.90;;;;;;5072524;28;20101;-48
2022/04/23 09:06:50;;;;;;;16.25;10.80;;;14.00;99.90;;;;;;5071378;28;20053;-49
2022/04/23 09:09:19;;;;;;;14.43;10.80;;;14.00;99.90;;;;;;5072749;28;20036;-48
2022/04/23 09:11:53;;;;;;;14.57;9.98;;;14.20;99.90;;;;;;5072341;28;20542;-49
2022/04/23 09:14:30;;;;;;;13.50;10.68;;;14.00;99.90;;;;;;5072488;28;20048;-51
2022/04/23 09:25:35;;;;;;;13.05;10.00;;;14.30;99.90;;;;;;5052042;28;20055;-48
2022/04/23 09:28:18;;;;;;;15.10;10.60;;;14.40;99.90;;;;;;5052249;28;20052;-49
2022/04/23 09:30:46;;;;;;;12.82;10.20;;;14.50;99.90;;;;;;5052620;28;20690;-49
2022/04/23 09:33:12;;;;;;;13.27;10.23;;;14.50;99.90;;;;;;5052422;28;20060;-52
2022/04/23 09:35:53;;;;;;;16.30;9.95;;;14.40;99.90;;;;;;5051819;28;20389;-51
2022/04/23 09:38:19;;;;;;;12.60;10.02;;;14.50;99.90;;;;;;5052079;28;20094;-50
2022/04/23 09:40:59;;;;;;;13.60;10.95;;;14.50;99.90;;;;;;5052006;28;20037;-50
2022/04/23 09:43:29;;;;;;;14.20;10.57;;;14.40;99.90;;;;;;5056920;28;20056;-49
2022/04/23 09:46:13;;;;;;;13.05;10.65;;;14.50;99.90;;;;;;5073090;28;20067;-49
2022/04/23 09:48:43;;;;;;;15.02;11.10;;;14.70;99.90;;;;;;5073359;28;20044;-51
2022/04/23 09:51:26;;;;;;;14.73;9.52;;;14.70;99.90;;;;;;5073408;28;20366;-52
2022/04/23 09:53:54;;;;;;;13.90;10.57;;;14.70;99.90;;;;;;5071937;28;20051;-50
2022/04/23 09:56:25;;;;;;;13.30;10.18;;;14.70;99.90;;;;;;5072876;28;20094;-48
2022/04/23 09:58:55;;;;;;;16.55;9.82;;;14.70;99.90;;;;;;5073063;28;20068;-48
2022/04/23 10:01:22;;;;;;;13.82;10.77;;;14.70;99.90;;;;;;5073060;28;20040;-49
2022/04/23 10:03:53;;;;;;;14.52;11.25;;;14.70;99.90;;;;;;5073093;28;20039;-49
2022/04/23 10:06:20;;;;;;;12.82;10.32;;;14.90;99.90;;;;;;5072994;28;20397;-50
2022/04/23 10:08:51;;;;;;;13.60;10.75;;;14.90;99.90;;;;;;5072825;28;20044;-50
2022/04/23 10:11:29;;;;;;;14.83;11.80;;;14.70;99.90;;;;;;5073113;28;20059;-50
2022/04/23 10:14:06;;;;;;;15.32;10.70;;;14.80;99.90;;;;;;5071526;28;20041;-50
2022/04/23 10:16:33;;;;;;;19.40;11.43;;;15.00;99.90;;;;;;5071103;28;20041;-50
2022/04/23 10:18:59;;;;;;;14.02;11.38;;;14.90;99.90;;;;;;5071201;28;20093;-51
2022/04/23 10:21:39;;;;;;;13.50;10.27;;;15.10;99.90;;;;;;5072221;28;20074;-51
2022/04/23 10:24:14;;;;;;;12.65;10.80;;;15.20;99.90;;;;;;5054053;28;20037;-54
2022/04/23 10:26:51;;;;;;;13.13;9.77;;;15.20;99.90;;;;;;5052321;28;20048;-50
2022/04/23 10:29:24;;;;;;;10.77;8.48;;;15.40;99.90;;;;;;5051947;28;20112;-52
2022/04/23 10:32:08;;;;;;;12.55;8.60;;;15.50;99.90;;;;;;5052098;28;20102;-52
2022/04/23 10:34:34;;;;;;;13.50;9.00;;;15.40;99.90;;;;;;5052238;28;20041;-50
2022/04/23 10:37:20;;;;;;;12.02;8.52;;;15.40;99.90;;;;;;5052050;28;20079;-53
2022/04/23 10:39:52;;;;;;;12.82;9.00;;;15.60;99.90;;;;;;5052147;28;20037;-50
2022/04/23 10:42:19;;;;;;;12.02;8.70;;;15.60;99.90;;;;;;5052165;28;20037;-52
2022/04/23 10:44:46;;;;;;;14.35;9.30;;;15.70;99.90;;;;;;5066489;28;20424;-51
2022/04/23 10:47:32;;;;;;;10.73;7.90;;;15.70;99.90;;;;;;5070526;28;20048;-50
2022/04/23 10:50:23;;;;;;;12.75;8.52;;;15.80;99.90;;;;;;5070517;28;20111;-52
2022/04/23 10:52:53;;;;;;;12.45;8.55;;;15.80;99.90;;;;;;5070223;28;20052;-52
2022/04/23 10:55:20;;;;;;;10.45;8.30;;;15.80;99.90;;;;;;5070410;28;20040;-52
2022/04/23 10:57:54;;;;;;;11.63;7.63;;;15.90;99.90;;;;;;5068752;28;20132;-49
2022/04/23 11:00:22;;;;;;;10.57;7.65;;;16.00;99.90;;;;;;5070185;28;20047;-51
2022/04/23 11:02:54;;;;;;;12.55;7.80;;;16.10;99.90;;;;;;5070164;28;20041;-48
2022/04/23 11:14:46;;;;;;;10.90;6.80;;;16.10;97.60;;;;;;5070135;28;20048;-53
2022/04/23 11:17:17;;;;;;;10.63;7.53;;;16.10;97.60;;;;;;5069824;28;20048;-53
2022/04/23 11:19:42;;;;;;;9.35;7.35;;;16.20;97.40;;;;;;5070442;28;20040;-50
2022/04/23 11:22:11;;;;;;;10.88;7.30;;;16.20;98.30;;;;;;5068754;28;20481;-53
2022/04/23 11:24:37;;;;;;;10.38;7.03;;;16.40;98.70;;;;;;5065772;28;20049;-53
2022/04/23 11:27:03;;;;;;;9.63;7.00;;;16.30;98.10;;;;;;5049974;28;20124;-51
2022/04/23 11:29:29;;;;;;;10.48;7.07;;;16.50;98.30;;;;;;5050050;28;20099;-53
2022/04/23 11:31:56;;;;;;;10.98;6.88;;;16.40;97.60;;;;;;5050074;28;20072;-50
2022/04/23 11:34:22;;;;;;;9.85;6.70;;;16.40;97.70;;;;;;5050079;28;20041;-52
2022/04/23 11:36:49;;;;;;;11.20;7.30;;;16.40;97.50;;;;;;5050210;28;20067;-50
2022/04/23 11:39:15;;;;;;;10.05;7.00;;;16.50;96.90;;;;;;5041169;28;20095;-50
2022/04/23 11:41:41;;;;;;;10.68;6.75;;;16.50;96.60;;;;;;5041216;28;20048;-49
2022/04/23 11:44:45;;;;;;;9.88;6.80;;;16.50;96.50;;;;;;5055239;28;20051;-54
2022/04/23 11:47:05;;;;;;;9.80;6.50;;;16.60;96.40;;;;;;5055294;28;20051;-53
2022/04/23 11:49:32;;;;;;;10.07;6.57;;;16.70;96.90;;;;;;5055719;28;20044;-53
2022/04/23 11:52:05;;;;;;;11.80;6.22;;;16.70;95.40;;;;;;5055291;28;20037;-54
2022/04/23 11:54:47;;;;;;;9.52;5.95;;;16.60;95.50;;;;;;5054148;28;20084;-53
2022/04/23 11:57:16;;;;;;;10.35;5.90;;;16.80;95.40;;;;;;5055149;28;20053;-51
2022/04/23 11:59:46;;;;;;;9.55;6.28;;;16.80;95.10;;;;;;5055432;28;20103;-51
2022/04/23 12:02:21;;;;;;;9.55;5.90;;;16.80;95.50;;;;;;5054025;28;20069;-49
2022/04/23 12:04:50;;;;;;;8.70;6.20;;;16.90;94.80;;;;;;5055268;28;20037;-50
2022/04/23 12:07:21;;;;;;;8.90;6.30;;;17.00;95.30;;;;;;5037257;28;20036;-48
2022/04/23 12:09:53;;;;;;;10.00;6.55;;;16.80;94.20;;;;;;5055153;28;20048;-50
2022/04/23 12:12:22;;;;;;;;;;;16.90;94.40;;;;;;5055732;28;20413;-50
2022/04/23 12:14:50;;;;;;;10.40;5.68;;;16.90;94.00;;;;;;5055165;28;19924;-49
2022/04/23 12:17:27;;;;;;;8.95;5.97;;;17.20;94.20;;;;;;5054848;28;20045;-49
2022/04/23 12:19:55;;;;;;;8.98;5.90;;;17.30;92.80;;;;;;5055061;28;20037;-49
2022/04/23 12:22:23;;;;;;;9.40;6.10;;;17.30;93.00;;;;;;5047383;28;20034;-49
2022/04/23 12:24:49;;;;;;;9.32;6.30;;;17.20;92.00;;;;;;5060004;28;20551;-49
2022/04/23 12:27:17;;;;;;;11.18;6.05;;;17.30;92.90;;;;;;5044762;28;20067;-52
2022/04/23 12:40:58;;;;;;;9.52;6.07;;;17.40;90.50;;;;;;5046472;28;20494;-48
2022/04/23 12:43:29;;;;;;;9.23;5.57;;;17.50;90.10;;;;;;5045235;28;20056;-51
2022/04/23 12:46:08;;;;;;;7.95;5.82;;;17.60;90.30;;;;;;5050219;28;20439;-51
2022/04/23 12:48:54;;;;;;;10.32;5.78;;;17.60;90.30;;;;;;5054145;28;20095;-51
2022/04/23 12:51:20;;;;;;;9.73;5.85;;;17.60;91.20;;;;;;5053828;28;20040;-51
2022/04/23 12:53:46;;;;;;;10.50;6.03;;;17.60;90.20;;;;;;5053929;28;20037;-52
2022/04/23 12:56:11;;;;;;;9.45;5.63;;;17.70;89.50;;;;;;5054057;28;20056;-52
2022/04/23 12:58:37;;;;;;;7.70;4.88;;;17.70;87.80;;;;;;5053985;28;20040;-50
2022/04/23 13:01:04;;;;;;;7.28;5.10;;;17.60;87.00;;;;;;5069687;28;20033;-51
2022/04/23 13:03:51;;;;;;;9.85;5.63;;;17.80;87.80;;;;;;5054109;28;20462;-50
2022/04/23 13:09:02;;;;;;;9.45;5.70;;;17.70;84.80;;;;;;5032078;28;20107;-49
2022/04/23 13:11:28;;;;;;;8.73;4.63;;;17.80;86.50;;;;;;5053816;28;20045;-51
2022/04/23 13:14:01;;;;;;;8.95;4.65;;;17.70;83.60;;;;;;5053593;28;20045;-49
2022/04/23 13:16:32;;;;;;;8.68;5.10;;;17.80;82.00;;;;;;5053247;28;20128;-51
2022/04/23 13:18:59;;;;;;;7.00;4.57;;;17.60;82.30;;;;;;5052028;28;20044;-50